Historical Data

TheSutherlands

Weather at Humberside Airport

Current Weather from Humberside Airport

The information displayed on this page is from the METAR reports produced by Humberside Airport. Note that there are times when these are not generated.

Weather Report

Coded Weather Report: 2021/09/21 13:50 EGNJ 211350Z 28006KT 240V320 CAVOK 21/09 Q1029

Report issued: 2021/09/21 at 13:50 UTC

Wind: light breeze from the west (280 degrees) at 6 knots (7 mph, 11 kph, Force 2)
Wind: direction varying between from the southwest (240 degrees) and from the northwest (320 degrees)
Weather: good visibility and no low cloud (ceiling and visibility OK)
Temperature: 21 C
Dewpoint: 9 C
Humidity: 46%
Pressure: 1029 hPa